sensor_id;sensor_type;location;lat;lon;timestamp;pressure;altitude;pressure_sealevel;temperature;humidity
42105;BME280;68365;51.472;5.712;2023-05-16T00:01:56;101631.66;;;18.13;100.00
42105;BME280;68365;51.472;5.712;2023-05-16T00:04:22;101641.53;;;18.10;100.00
42105;BME280;68365;51.472;5.712;2023-05-16T00:06:49;101643.81;;;18.14;100.00
42105;BME280;68365;51.472;5.712;2023-05-16T00:09:15;101640.16;;;18.15;100.00
42105;BME280;68365;51.472;5.712;2023-05-16T00:11:41;101641.53;;;18.10;100.00
42105;BME280;68365;51.472;5.712;2023-05-16T00:14:07;101647.06;;;18.16;100.00
42105;BME280;68365;51.472;5.712;2023-05-16T00:16:33;101647.63;;;18.11;100.00
42105;BME280;68365;51.472;5.712;2023-05-16T00:19:01;101643.34;;;18.10;100.00
42105;BME280;68365;51.472;5.712;2023-05-16T00:21:27;101639.66;;;18.04;100.00
42105;BME280;68365;51.472;5.712;2023-05-16T00:23:56;101643.75;;;18.07;100.00
42105;BME280;68365;51.472;5.712;2023-05-16T00:26:22;101641.75;;;18.09;100.00
42105;BME280;68365;51.472;5.712;2023-05-16T00:28:48;101650.16;;;18.04;100.00
42105;BME280;68365;51.472;5.712;2023-05-16T00:31:13;101646.38;;;18.07;100.00
42105;BME280;68365;51.472;5.712;2023-05-16T00:33:39;101640.66;;;18.03;100.00
42105;BME280;68365;51.472;5.712;2023-05-16T00:36:06;101643.66;;;18.00;100.00
42105;BME280;68365;51.472;5.712;2023-05-16T00:38:31;101644.28;;;18.02;100.00
42105;BME280;68365;51.472;5.712;2023-05-16T00:40:57;101646.53;;;18.05;100.00
42105;BME280;68365;51.472;5.712;2023-05-16T00:43:23;101648.38;;;18.05;100.00
42105;BME280;68365;51.472;5.712;2023-05-16T00:45:49;101648.91;;;18.00;100.00
42105;BME280;68365;51.472;5.712;2023-05-16T00:48:15;101641.47;;;18.04;100.00
42105;BME280;68365;51.472;5.712;2023-05-16T00:50:41;101644.47;;;18.01;100.00
42105;BME280;68365;51.472;5.712;2023-05-16T00:53:07;101652.38;;;18.01;100.00
42105;BME280;68365;51.472;5.712;2023-05-16T00:55:33;101646.47;;;17.99;100.00
42105;BME280;68365;51.472;5.712;2023-05-16T00:57:59;101647.13;;;18.01;100.00
42105;BME280;68365;51.472;5.712;2023-05-16T01:00:25;101649.75;;;18.01;100.00
42105;BME280;68365;51.472;5.712;2023-05-16T01:02:51;101649.91;;;17.99;100.00
42105;BME280;68365;51.472;5.712;2023-05-16T01:05:21;101647.47;;;17.98;100.00
42105;BME280;68365;51.472;5.712;2023-05-16T01:07:47;101650.66;;;17.93;100.00
42105;BME280;68365;51.472;5.712;2023-05-16T01:10:12;101660.78;;;17.96;100.00
42105;BME280;68365;51.472;5.712;2023-05-16T01:15:48;101665.84;;;17.98;100.00
42105;BME280;68365;51.472;5.712;2023-05-16T01:18:54;101651.91;;;17.97;100.00
42105;BME280;68365;51.472;5.712;2023-05-16T01:21:48;101664.25;;;17.97;100.00
42105;BME280;68365;51.472;5.712;2023-05-16T01:25:01;101653.72;;;17.97;100.00
42105;BME280;68365;51.472;5.712;2023-05-16T01:27:30;101653.91;;;17.95;100.00
42105;BME280;68365;51.472;5.712;2023-05-16T01:29:56;101665.06;;;17.97;100.00
42105;BME280;68365;51.472;5.712;2023-05-16T01:32:22;101667.84;;;17.96;100.00
42105;BME280;68365;51.472;5.712;2023-05-16T01:34:51;101661.78;;;17.95;100.00
42105;BME280;68365;51.472;5.712;2023-05-16T01:37:33;101661.34;;;17.92;100.00
42105;BME280;68365;51.472;5.712;2023-05-16T01:40:11;101666.41;;;17.93;100.00
42105;BME280;68365;51.472;5.712;2023-05-16T01:42:44;101662.78;;;17.94;100.00
42105;BME280;68365;51.472;5.712;2023-05-16T01:45:17;101665.78;;;17.91;100.00
42105;BME280;68365;51.472;5.712;2023-05-16T01:47:51;101666.97;;;17.88;100.00
42105;BME280;68365;51.472;5.712;2023-05-16T01:50:25;101669.59;;;17.88;100.00
42105;BME280;68365;51.472;5.712;2023-05-16T01:53:08;101669.59;;;17.88;100.00
42105;BME280;68365;51.472;5.712;2023-05-16T01:55:50;101675.03;;;17.87;100.00
42105;BME280;68365;51.472;5.712;2023-05-16T01:58:22;101678.28;;;17.89;100.00
42105;BME280;68365;51.472;5.712;2023-05-16T02:00:52;101686.81;;;17.91;100.00
42105;BME280;68365;51.472;5.712;2023-05-16T02:03:18;101683.09;;;17.85;100.00
42105;BME280;68365;51.472;5.712;2023-05-16T02:05:44;101685.53;;;17.87;100.00
42105;BME280;68365;51.472;5.712;2023-05-16T02:08:10;101686.16;;;17.89;100.00
42105;BME280;68365;51.472;5.712;2023-05-16T02:10:36;101687.16;;;17.88;100.00
42105;BME280;68365;51.472;5.712;2023-05-16T02:13:04;101697.25;;;17.84;100.00
42105;BME280;68365;51.472;5.712;2023-05-16T02:15:30;101689.84;;;17.80;100.00
42105;BME280;68365;51.472;5.712;2023-05-16T02:17:56;101693.13;;;17.82;100.00
42105;BME280;68365;51.472;5.712;2023-05-16T02:20:23;101693.31;;;17.80;100.00
42105;BME280;68365;51.472;5.712;2023-05-16T02:22:48;101691.69;;;17.79;100.00
42105;BME280;68365;51.472;5.712;2023-05-16T02:25:15;101692.88;;;17.77;100.00
42105;BME280;68365;51.472;5.712;2023-05-16T02:27:41;101687.59;;;17.77;100.00
42105;BME280;68365;51.472;5.712;2023-05-16T02:30:12;101702.56;;;17.76;100.00
42105;BME280;68365;51.472;5.712;2023-05-16T02:32:41;101706.97;;;17.76;100.00
42105;BME280;68365;51.472;5.712;2023-05-16T02:35:10;101708.00;;;17.75;100.00
42105;BME280;68365;51.472;5.712;2023-05-16T02:37:36;101703.72;;;17.74;100.00
42105;BME280;68365;51.472;5.712;2023-05-16T02:40:03;101708.78;;;17.75;100.00
42105;BME280;68365;51.472;5.712;2023-05-16T02:42:32;101716.84;;;17.74;100.00
42105;BME280;68365;51.472;5.712;2023-05-16T02:44:58;101712.22;;;17.76;100.00
42105;BME280;68365;51.472;5.712;2023-05-16T02:47:24;101714.44;;;17.72;100.00
42105;BME280;68365;51.472;5.712;2023-05-16T02:49:50;101726.53;;;17.73;100.00
42105;BME280;68365;51.472;5.712;2023-05-16T02:52:18;101720.09;;;17.76;100.00
42105;BME280;68365;51.472;5.712;2023-05-16T02:54:44;101725.72;;;17.73;100.00
42105;BME280;68365;51.472;5.712;2023-05-16T02:57:10;101736.97;;;17.66;100.00
42105;BME280;68365;51.472;5.712;2023-05-16T02:59:39;101736.97;;;17.66;100.00
42105;BME280;68365;51.472;5.712;2023-05-16T03:02:05;101742.69;;;17.70;100.00
42105;BME280;68365;51.472;5.712;2023-05-16T03:04:31;101747.47;;;17.66;100.00
42105;BME280;68365;51.472;5.712;2023-05-16T03:06:57;101740.16;;;17.62;100.00
42105;BME280;68365;51.472;5.712;2023-05-16T03:09:23;101741.84;;;17.55;100.00
42105;BME280;68365;51.472;5.712;2023-05-16T03:11:49;101750.66;;;17.62;100.00
42105;BME280;68365;51.472;5.712;2023-05-16T03:14:14;101748.03;;;17.62;100.00
42105;BME280;68365;51.472;5.712;2023-05-16T03:16:40;101747.00;;;17.63;100.00
42105;BME280;68365;51.472;5.712;2023-05-16T03:19:09;101750.19;;;17.58;100.00
42105;BME280;68365;51.472;5.712;2023-05-16T03:21:35;101749.38;;;17.58;100.00
42105;BME280;68365;51.472;5.712;2023-05-16T03:24:02;101750.53;;;17.55;100.00
42105;BME280;68365;51.472;5.712;2023-05-16T03:26:28;101759.50;;;17.61;100.00
42105;BME280;68365;51.472;5.712;2023-05-16T03:28:54;101755.44;;;17.58;100.00
42105;BME280;68365;51.472;5.712;2023-05-16T03:31:20;101756.88;;;17.61;100.00
42105;BME280;68365;51.472;5.712;2023-05-16T03:33:46;101755.44;;;17.58;100.00
42105;BME280;68365;51.472;5.712;2023-05-16T03:36:12;101755.59;;;17.57;100.00
42105;BME280;68365;51.472;5.712;2023-05-16T03:38:40;101765.31;;;17.56;100.00
42105;BME280;68365;51.472;5.712;2023-05-16T03:41:06;101773.25;;;17.63;100.00
42105;BME280;68365;51.472;5.712;2023-05-16T03:43:31;101767.38;;;17.61;100.00
42105;BME280;68365;51.472;5.712;2023-05-16T03:45:57;101766.91;;;17.57;100.00
42105;BME280;68365;51.472;5.712;2023-05-16T03:48:25;101772.38;;;17.56;100.00
42105;BME280;68365;51.472;5.712;2023-05-16T03:50:51;101770.38;;;17.58;100.00
42105;BME280;68365;51.472;5.712;2023-05-16T03:53:17;101774.28;;;17.62;100.00
42105;BME280;68365;51.472;5.712;2023-05-16T03:55:42;101771.72;;;17.54;100.00
42105;BME280;68365;51.472;5.712;2023-05-16T03:58:08;101776.97;;;17.54;100.00
42105;BME280;68365;51.472;5.712;2023-05-16T04:00:34;101784.66;;;17.55;100.00
42105;BME280;68365;51.472;5.712;2023-05-16T04:03:01;101775.97;;;17.55;100.00
42105;BME280;68365;51.472;5.712;2023-05-16T04:05:27;101780.59;;;17.53;100.00
42105;BME280;68365;51.472;5.712;2023-05-16T04:07:53;101781.59;;;17.52;100.00
42105;BME280;68365;51.472;5.712;2023-05-16T04:10:19;101787.66;;;17.52;100.00
42105;BME280;68365;51.472;5.712;2023-05-16T04:12:45;101792.09;;;17.52;100.00
42105;BME280;68365;51.472;5.712;2023-05-16T04:15:11;101788.19;;;17.47;100.00
42105;BME280;68365;51.472;5.712;2023-05-16T04:17:37;101787.66;;;17.52;100.00
42105;BME280;68365;51.472;5.712;2023-05-16T04:20:03;101793.88;;;17.51;100.00
42105;BME280;68365;51.472;5.712;2023-05-16T04:22:29;101790.81;;;17.47;100.00
42105;BME280;68365;51.472;5.712;2023-05-16T04:24:58;101794.09;;;17.49;100.00
42105;BME280;68365;51.472;5.712;2023-05-16T04:27:24;101799.13;;;17.51;100.00
42105;BME280;68365;51.472;5.712;2023-05-16T04:29:51;101798.06;;;17.45;100.00
42105;BME280;68365;51.472;5.712;2023-05-16T04:32:17;101794.44;;;17.46;100.00
42105;BME280;68365;51.472;5.712;2023-05-16T04:34:44;101799.22;;;17.43;100.00
42105;BME280;68365;51.472;5.712;2023-05-16T04:37:11;101812.34;;;17.43;100.00
42105;BME280;68365;51.472;5.712;2023-05-16T04:39:38;101806.09;;;17.44;100.00
42105;BME280;68365;51.472;5.712;2023-05-16T04:42:04;101812.53;;;17.41;100.00
42105;BME280;68365;51.472;5.712;2023-05-16T04:44:30;101809.91;;;17.41;100.00
42105;BME280;68365;51.472;5.712;2023-05-16T04:46:56;101813.34;;;17.42;100.00
42105;BME280;68365;51.472;5.712;2023-05-16T04:49:22;101815.97;;;17.42;100.00
42105;BME280;68365;51.472;5.712;2023-05-16T04:51:48;101822.84;;;17.43;100.00
42105;BME280;68365;51.472;5.712;2023-05-16T04:54:14;101830.00;;;17.49;100.00
42105;BME280;68365;51.472;5.712;2023-05-16T04:56:40;101825.75;;;17.48;100.00
42105;BME280;68365;51.472;5.712;2023-05-16T04:59:06;101827.56;;;17.47;100.00
42105;BME280;68365;51.472;5.712;2023-05-16T05:01:32;101826.56;;;17.48;100.00
42105;BME280;68365;51.472;5.712;2023-05-16T05:03:58;101827.50;;;17.56;100.00
42105;BME280;68365;51.472;5.712;2023-05-16T05:06:24;101838.44;;;17.59;100.00
42105;BME280;68365;51.472;5.712;2023-05-16T05:08:50;101834.66;;;17.62;100.00
42105;BME280;68365;51.472;5.712;2023-05-16T05:11:16;101835.53;;;17.54;100.00
42105;BME280;68365;51.472;5.712;2023-05-16T05:13:42;101838.91;;;17.63;100.00
42105;BME280;68365;51.472;5.712;2023-05-16T05:16:07;101833.56;;;17.56;100.00
42105;BME280;68365;51.472;5.712;2023-05-16T05:18:33;101835.47;;;17.62;100.00
42105;BME280;68365;51.472;5.712;2023-05-16T05:21:00;101833.91;;;17.53;100.00
42105;BME280;68365;51.472;5.712;2023-05-16T05:23:26;101831.75;;;17.57;100.00
42105;BME280;68365;51.472;5.712;2023-05-16T05:25:52;101836.66;;;17.60;100.00
42105;BME280;68365;51.472;5.712;2023-05-16T05:28:17;101840.53;;;17.64;100.00
42105;BME280;68365;51.472;5.712;2023-05-16T05:30:43;101839.44;;;17.58;100.00
42105;BME280;68365;51.472;5.712;2023-05-16T05:33:16;101836.44;;;17.61;100.00
42105;BME280;68365;51.472;5.712;2023-05-16T05:35:45;101849.78;;;17.75;100.00
42105;BME280;68365;51.472;5.712;2023-05-16T05:38:11;101846.16;;;17.76;100.00
42105;BME280;68365;51.472;5.712;2023-05-16T05:40:37;101845.53;;;17.74;100.00
42105;BME280;68365;51.472;5.712;2023-05-16T05:43:03;101845.59;;;17.65;100.00
42105;BME280;68365;51.472;5.712;2023-05-16T05:45:29;101851.69;;;17.66;100.00
42105;BME280;68365;51.472;5.712;2023-05-16T05:47:55;101855.69;;;17.77;100.00
42105;BME280;68365;51.472;5.712;2023-05-16T05:50:21;101857.94;;;17.80;100.00
42105;BME280;68365;51.472;5.712;2023-05-16T05:52:47;101855.84;;;17.75;100.00
42105;BME280;68365;51.472;5.712;2023-05-16T05:55:13;101857.75;;;17.81;100.00
42105;BME280;68365;51.472;5.712;2023-05-16T05:57:38;101861.34;;;17.88;100.00
42105;BME280;68365;51.472;5.712;2023-05-16T06:00:05;101864.94;;;17.87;100.00
42105;BME280;68365;51.472;5.712;2023-05-16T06:02:33;101867.56;;;17.87;100.00
42105;BME280;68365;51.472;5.712;2023-05-16T06:04:59;101870.22;;;17.87;100.00
42105;BME280;68365;51.472;5.712;2023-05-16T06:07:25;101869.91;;;17.82;100.00
42105;BME280;68365;51.472;5.712;2023-05-16T06:09:51;101868.75;;;17.85;100.00
42105;BME280;68365;51.472;5.712;2023-05-16T06:12:17;101873.00;;;17.86;100.00
42105;BME280;68365;51.472;5.712;2023-05-16T06:14:43;101872.66;;;17.89;100.00
42105;BME280;68365;51.472;5.712;2023-05-16T06:17:11;101873.75;;;17.95;100.00
42105;BME280;68365;51.472;5.712;2023-05-16T06:19:37;101876.38;;;17.95;100.00
42105;BME280;68365;51.472;5.712;2023-05-16T06:22:06;101885.88;;;17.96;100.00
42105;BME280;68365;51.472;5.712;2023-05-16T06:24:32;101887.16;;;18.00;100.00
42105;BME280;68365;51.472;5.712;2023-05-16T06:26:57;101885.16;;;18.02;100.00
42105;BME280;68365;51.472;5.712;2023-05-16T06:29:23;101889.63;;;18.01;100.00
42105;BME280;68365;51.472;5.712;2023-05-16T06:31:49;101888.16;;;17.99;100.00
42105;BME280;68365;51.472;5.712;2023-05-16T06:34:15;101894.88;;;18.01;100.00
42105;BME280;68365;51.472;5.712;2023-05-16T06:36:41;101886.19;;;18.01;100.00
42105;BME280;68365;51.472;5.712;2023-05-16T06:39:08;101890.59;;;18.00;100.00
42105;BME280;68365;51.472;5.712;2023-05-16T06:41:36;101888.81;;;18.01;100.00
42105;BME280;68365;51.472;5.712;2023-05-16T06:44:02;101892.41;;;18.00;100.00
42105;BME280;68365;51.472;5.712;2023-05-16T06:46:29;101890.59;;;18.00;100.00
42105;BME280;68365;51.472;5.712;2023-05-16T06:48:58;101893.06;;;18.02;100.00
42105;BME280;68365;51.472;5.712;2023-05-16T06:51:25;101890.78;;;17.99;100.00
42105;BME280;68365;51.472;5.712;2023-05-16T06:53:50;101899.03;;;17.96;100.00
42105;BME280;68365;51.472;5.712;2023-05-16T06:56:16;101892.16;;;17.95;100.00
42105;BME280;68365;51.472;5.712;2023-05-16T06:58:42;101896.41;;;17.96;100.00
42105;BME280;68365;51.472;5.712;2023-05-16T07:01:08;101897.50;;;18.01;100.00
42105;BME280;68365;51.472;5.712;2023-05-16T07:03:34;101905.38;;;18.01;100.00
42105;BME280;68365;51.472;5.712;2023-05-16T07:06:01;101898.38;;;18.08;100.00
42105;BME280;68365;51.472;5.712;2023-05-16T07:08:27;101898.94;;;18.04;100.00
42105;BME280;68365;51.472;5.712;2023-05-16T07:10:53;101901.22;;;18.07;100.00
42105;BME280;68365;51.472;5.712;2023-05-16T07:13:19;101900.94;;;18.02;100.00
42105;BME280;68365;51.472;5.712;2023-05-16T07:15:45;101901.56;;;18.04;100.00
42105;BME280;68365;51.472;5.712;2023-05-16T07:18:11;101910.25;;;18.04;100.00
42105;BME280;68365;51.472;5.712;2023-05-16T07:20:36;101907.00;;;18.02;100.00
42105;BME280;68365;51.472;5.712;2023-05-16T07:23:02;101908.00;;;18.01;100.00
42105;BME280;68365;51.472;5.712;2023-05-16T07:25:31;101906.34;;;18.00;100.00
42105;BME280;68365;51.472;5.712;2023-05-16T07:27:58;101913.44;;;18.00;100.00
42105;BME280;68365;51.472;5.712;2023-05-16T07:30:28;101904.75;;;17.99;100.00
42105;BME280;68365;51.472;5.712;2023-05-16T07:32:55;101910.63;;;18.01;100.00
42105;BME280;68365;51.472;5.712;2023-05-16T07:35:21;101918.13;;;18.04;100.00
42105;BME280;68365;51.472;5.712;2023-05-16T07:37:47;101906.66;;;18.05;100.00
42105;BME280;68365;51.472;5.712;2023-05-16T07:40:12;101923.03;;;18.07;100.00
42105;BME280;68365;51.472;5.712;2023-05-16T07:42:39;101905.63;;;18.06;100.00
42105;BME280;68365;51.472;5.712;2023-05-16T07:45:06;101912.53;;;18.07;100.00
42105;BME280;68365;51.472;5.712;2023-05-16T07:47:35;101907.28;;;18.07;100.00
42105;BME280;68365;51.472;5.712;2023-05-16T07:50:04;101915.00;;;18.09;100.00
42105;BME280;68365;51.472;5.712;2023-05-16T07:52:29;101914.78;;;18.10;100.00
42105;BME280;68365;51.472;5.712;2023-05-16T07:54:55;101912.44;;;17.78;99.19
42105;BME280;68365;51.472;5.712;2023-05-16T07:57:22;101916.69;;;17.64;94.35
42105;BME280;68365;51.472;5.712;2023-05-16T07:59:48;101918.91;;;17.52;88.97
42105;BME280;68365;51.472;5.712;2023-05-16T08:02:15;101920.41;;;17.46;82.64
42105;BME280;68365;51.472;5.712;2023-05-16T08:04:41;101918.03;;;17.37;76.87
42105;BME280;68365;51.472;5.712;2023-05-16T08:07:07;101921.72;;;17.27;73.51
42105;BME280;68365;51.472;5.712;2023-05-16T08:09:34;101914.38;;;17.23;71.40
42105;BME280;68365;51.472;5.712;2023-05-16T08:12:00;101932.53;;;17.24;69.87
42105;BME280;68365;51.472;5.712;2023-05-16T08:14:32;101931.09;;;17.22;68.32
42105;BME280;68365;51.472;5.712;2023-05-16T08:16:59;101929.81;;;17.18;68.29
42105;BME280;68365;51.472;5.712;2023-05-16T08:19:25;101938.84;;;17.15;66.35
42105;BME280;68365;51.472;5.712;2023-05-16T08:21:51;101921.13;;;17.17;65.97
42105;BME280;68365;51.472;5.712;2023-05-16T08:24:17;101919.66;;;17.15;65.41
42105;BME280;68365;51.472;5.712;2023-05-16T08:26:43;101916.03;;;17.16;65.00
42105;BME280;68365;51.472;5.712;2023-05-16T08:29:08;101924.06;;;17.14;64.81
42105;BME280;68365;51.472;5.712;2023-05-16T08:31:38;101933.16;;;17.03;64.34
42105;BME280;68365;51.472;5.712;2023-05-16T08:34:04;101932.00;;;17.06;64.06
42105;BME280;68365;51.472;5.712;2023-05-16T08:36:34;101922.75;;;17.18;65.14
42105;BME280;68365;51.472;5.712;2023-05-16T08:39:00;101918.09;;;17.28;64.26
42105;BME280;68365;51.472;5.712;2023-05-16T08:41:26;101925.09;;;17.36;64.83
42105;BME280;68365;51.472;5.712;2023-05-16T08:43:55;101929.34;;;17.37;64.51
42105;BME280;68365;51.472;5.712;2023-05-16T08:46:23;101917.59;;;17.33;64.84
42105;BME280;68365;51.472;5.712;2023-05-16T08:48:59;101916.63;;;17.26;64.02
42105;BME280;68365;51.472;5.712;2023-05-16T08:51:28;101917.63;;;17.25;64.30
42105;BME280;68365;51.472;5.712;2023-05-16T08:54:02;101920.53;;;17.30;65.88
42105;BME280;68365;51.472;5.712;2023-05-16T08:56:32;101919.19;;;17.34;63.99
42105;BME280;68365;51.472;5.712;2023-05-16T08:58:59;101909.41;;;17.28;64.11
42105;BME280;68365;51.472;5.712;2023-05-16T09:01:31;101912.84;;;17.28;63.96
42105;BME280;68365;51.472;5.712;2023-05-16T09:04:00;101912.03;;;17.28;64.07
42105;BME280;68365;51.472;5.712;2023-05-16T09:09:08;101907.53;;;17.37;65.07
42105;BME280;68365;51.472;5.712;2023-05-16T09:11:37;101916.19;;;17.45;64.01
42105;BME280;68365;51.472;5.712;2023-05-16T09:14:06;101910.47;;;17.42;63.55
42105;BME280;68365;51.472;5.712;2023-05-16T09:16:33;101914.06;;;17.41;63.20
42105;BME280;68365;51.472;5.712;2023-05-16T09:19:02;101912.28;;;17.41;63.49
42105;BME280;68365;51.472;5.712;2023-05-16T09:21:32;101924.88;;;17.23;62.80
42105;BME280;68365;51.472;5.712;2023-05-16T09:24:06;101922.97;;;17.08;61.83
42105;BME280;68365;51.472;5.712;2023-05-16T09:26:37;101922.34;;;17.06;62.21
42105;BME280;68365;51.472;5.712;2023-05-16T09:32:24;101913.13;;;17.11;63.98
42105;BME280;68365;51.472;5.712;2023-05-16T09:34:56;101913.47;;;17.07;63.57
42105;BME280;68365;51.472;5.712;2023-05-16T09:37:23;101910.84;;;17.07;63.24
42105;BME280;68365;51.472;5.712;2023-05-16T09:39:51;101904.16;;;17.05;62.69
42105;BME280;68365;51.472;5.712;2023-05-16T09:42:20;101908.00;;;17.17;63.22
42105;BME280;68365;51.472;5.712;2023-05-16T09:44:49;101915.72;;;17.19;63.39
42105;BME280;68365;51.472;5.712;2023-05-16T09:47:21;101899.97;;;17.19;62.51
42105;BME280;68365;51.472;5.712;2023-05-16T09:49:52;101905.38;;;17.17;61.74
42105;BME280;68365;51.472;5.712;2023-05-16T09:52:18;101901.09;;;17.16;60.65
42105;BME280;68365;51.472;5.712;2023-05-16T09:54:46;101896.34;;;17.20;59.88
42105;BME280;68365;51.472;5.712;2023-05-16T09:57:19;101900.78;;;17.19;59.54
42105;BME280;68365;51.472;5.712;2023-05-16T09:59:46;101906.94;;;17.26;60.34
42105;BME280;68365;51.472;5.712;2023-05-16T10:02:13;101915.47;;;17.28;60.22
42105;BME280;68365;51.472;5.712;2023-05-16T10:04:39;101908.13;;;17.24;59.49
42105;BME280;68365;51.472;5.712;2023-05-16T10:07:06;101909.94;;;17.23;59.50
42105;BME280;68365;51.472;5.712;2023-05-16T10:09:35;101908.13;;;17.24;59.94
42105;BME280;68365;51.472;5.712;2023-05-16T10:12:03;101927.13;;;17.26;60.04
42105;BME280;68365;51.472;5.712;2023-05-16T10:14:36;101916.63;;;17.26;60.79
42105;BME280;68365;51.472;5.712;2023-05-16T10:17:03;101914.22;;;17.16;60.59
42105;BME280;68365;51.472;5.712;2023-05-16T10:19:38;101918.44;;;17.25;61.30
42105;BME280;68365;51.472;5.712;2023-05-16T10:22:05;101931.84;;;17.30;61.99
42105;BME280;68365;51.472;5.712;2023-05-16T10:27:17;101914.00;;;17.49;64.27
42105;BME280;68365;51.472;5.712;2023-05-16T10:29:43;101912.91;;;17.43;63.94
42105;BME280;68365;51.472;5.712;2023-05-16T10:32:09;101925.34;;;17.49;65.08
42105;BME280;68365;51.472;5.712;2023-05-16T10:34:38;101912.38;;;17.48;64.72
42105;BME280;68365;51.472;5.712;2023-05-16T10:37:10;101926.16;;;17.50;65.33
42105;BME280;68365;51.472;5.712;2023-05-16T10:39:37;101909.75;;;17.48;64.50
42105;BME280;68365;51.472;5.712;2023-05-16T10:42:07;101920.78;;;17.43;62.10
42105;BME280;68365;51.472;5.712;2023-05-16T10:44:33;101906.13;;;17.49;60.03
42105;BME280;68365;51.472;5.712;2023-05-16T10:47:02;101905.16;;;17.50;60.05
42105;BME280;68365;51.472;5.712;2023-05-16T10:49:30;101898.53;;;17.54;59.71
42105;BME280;68365;51.472;5.712;2023-05-16T10:52:14;101891.59;;;17.61;61.65
42105;BME280;68365;51.472;5.712;2023-05-16T10:54:49;101896.97;;;17.68;60.85
42105;BME280;68365;51.472;5.712;2023-05-16T10:57:22;101890.59;;;17.62;59.90
42105;BME280;68365;51.472;5.712;2023-05-16T10:59:50;101892.06;;;17.65;63.52
42105;BME280;68365;51.472;5.712;2023-05-16T11:02:40;101904.84;;;17.68;65.05
42105;BME280;68365;51.472;5.712;2023-05-16T11:05:13;101902.38;;;17.66;62.71
42105;BME280;68365;51.472;5.712;2023-05-16T11:07:43;101897.31;;;17.65;62.49
42105;BME280;68365;51.472;5.712;2023-05-16T11:10:26;101905.53;;;17.62;60.15
42105;BME280;68365;51.472;5.712;2023-05-16T11:12:52;101908.63;;;17.65;61.25
42105;BME280;68365;51.472;5.712;2023-05-16T11:15:23;101904.06;;;17.59;60.16
42105;BME280;68365;51.472;5.712;2023-05-16T11:17:55;101910.16;;;17.60;58.90
42105;BME280;68365;51.472;5.712;2023-05-16T11:20:36;101898.19;;;17.57;57.98
42105;BME280;68365;51.472;5.712;2023-05-16T11:25:50;101884.88;;;17.59;57.10
42105;BME280;68365;51.472;5.712;2023-05-16T11:28:18;101892.75;;;17.59;58.09
42105;BME280;68365;51.472;5.712;2023-05-16T11:30:53;101898.81;;;17.59;59.45
42105;BME280;68365;51.472;5.712;2023-05-16T11:33:23;101899.47;;;17.61;58.08
42105;BME280;68365;51.472;5.712;2023-05-16T11:36:07;101901.56;;;17.66;59.49
42105;BME280;68365;51.472;5.712;2023-05-16T11:38:34;101897.78;;;17.68;58.55
42105;BME280;68365;51.472;5.712;2023-05-16T11:41:07;101906.63;;;17.67;59.20
42105;BME280;68365;51.472;5.712;2023-05-16T11:43:42;101905.00;;;17.66;60.56
42105;BME280;68365;51.472;5.712;2023-05-16T11:46:24;101906.00;;;17.65;60.83
42105;BME280;68365;51.472;5.712;2023-05-16T11:49:02;101906.28;;;17.70;63.24
42105;BME280;68365;51.472;5.712;2023-05-16T11:54:31;101905.16;;;17.88;65.70
42105;BME280;68365;51.472;5.712;2023-05-16T11:57:03;101903.38;;;17.88;66.83
42105;BME280;68365;51.472;5.712;2023-05-16T11:59:30;101910.06;;;17.91;67.48
42105;BME280;68365;51.472;5.712;2023-05-16T12:02:02;101918.41;;;17.95;68.35
42105;BME280;68365;51.472;5.712;2023-05-16T12:04:37;101913.97;;;17.95;70.06
42105;BME280;68365;51.472;5.712;2023-05-16T12:07:06;101917.88;;;17.99;70.17
42105;BME280;68365;51.472;5.712;2023-05-16T12:09:57;101911.28;;;18.03;71.51
42105;BME280;68365;51.472;5.712;2023-05-16T12:12:25;101910.38;;;18.11;71.13
42105;BME280;68365;51.472;5.712;2023-05-16T12:14:53;101911.28;;;18.18;72.00
42105;BME280;68365;51.472;5.712;2023-05-16T12:17:19;101918.81;;;18.21;71.91
42105;BME280;68365;51.472;5.712;2023-05-16T12:22:48;101914.63;;;18.12;73.07
42105;BME280;68365;51.472;5.712;2023-05-16T12:25:35;101919.53;;;18.15;73.46
42105;BME280;68365;51.472;5.712;2023-05-16T12:28:06;101917.25;;;18.12;73.62
42105;BME280;68365;51.472;5.712;2023-05-16T12:30:33;101913.81;;;18.12;73.76
42105;BME280;68365;51.472;5.712;2023-05-16T12:33:14;101912.00;;;18.12;75.03
42105;BME280;68365;51.472;5.712;2023-05-16T12:35:43;101912.88;;;18.04;75.75
42105;BME280;68365;51.472;5.712;2023-05-16T12:38:16;101916.69;;;18.02;78.25
42105;BME280;68365;51.472;5.712;2023-05-16T12:40:45;101927.03;;;18.03;77.51
42105;BME280;68365;51.472;5.712;2023-05-16T12:43:21;101921.31;;;18.00;80.61
42105;BME280;68365;51.472;5.712;2023-05-16T12:45:55;101919.69;;;17.99;80.34
42105;BME280;68365;51.472;5.712;2023-05-16T12:48:23;101918.13;;;18.04;80.25
42105;BME280;68365;51.472;5.712;2023-05-16T12:50:54;101927.84;;;18.04;81.42
42105;BME280;68365;51.472;5.712;2023-05-16T12:53:20;101911.91;;;18.05;81.99
42105;BME280;68365;51.472;5.712;2023-05-16T12:55:46;101923.84;;;18.08;81.01
42105;BME280;68365;51.472;5.712;2023-05-16T12:58:12;101924.94;;;17.99;83.41
42105;BME280;68365;51.472;5.712;2023-05-16T13:00:38;101936.09;;;18.01;83.38
42105;BME280;68365;51.472;5.712;2023-05-16T13:03:05;101938.72;;;18.01;82.87
42105;BME280;68365;51.472;5.712;2023-05-16T13:05:32;101937.06;;;18.00;84.00
42105;BME280;68365;51.472;5.712;2023-05-16T13:08:01;101940.16;;;18.03;83.98
42105;BME280;68365;51.472;5.712;2023-05-16T13:10:27;101943.78;;;18.02;83.45